Time;durP1;ratioP1;P1;durP2;ratioP2;P2;SDS_P1;SDS_P2;PMS_P1;PMS_P2;Temp;Humidity;BMP_temperature;BMP_pressure;BME280_temperature;BME280_humidity;BME280_pressure;Samples;Min_cycle;Max_cycle;Signal;HPM_P1;HPM_P2
2023/06/14 00:02:25;;;;;;;2.40;1.65;;;;;;;;;;5899177;28;9999823;-70
2023/06/14 00:05:26;;;;;;;2.33;1.57;;;;;;;;;;6254275;28;20024;-70
2023/06/14 00:08:26;;;;;;;1.60;1.50;;;;;;;;;;6256355;28;20026;-70
2023/06/14 00:11:26;;;;;;;2.10;1.60;;;;;;;;;;6249487;28;20021;-70
2023/06/14 00:14:27;;;;;;;2.67;1.67;;;;;;;;;;6258293;28;20021;-71
2023/06/14 00:17:30;;;;;;;2.90;1.80;;;;;;;;;;6251577;28;20022;-70
2023/06/14 00:20:32;;;;;;;2.03;1.70;;;;;;;;;;6253967;28;20036;-71
2023/06/14 00:23:32;;;;;;;1.70;1.55;;;;;;;;;;6254889;28;20017;-69
2023/06/14 00:26:32;;;;;;;3.17;1.53;;;;;;;;;;6258713;28;20064;-70
2023/06/14 00:29:33;;;;;;;3.10;1.70;;;;;;;;;;6257763;28;20017;-72
2023/06/14 00:32:33;;;;;;;2.50;1.60;;;;;;;;;;6255475;28;20431;-72
2023/06/14 00:35:33;;;;;;;1.83;1.53;;;;;;;;;;6258249;28;20025;-72
2023/06/14 00:38:33;;;;;;;1.70;1.57;;;;;;;;;;6253401;28;20029;-71
2023/06/14 00:41:34;;;;;;;1.90;1.50;;;;;;;;;;6251874;28;20025;-71
2023/06/14 00:44:34;;;;;;;2.53;1.30;;;;;;;;;;6254833;28;20028;-71
2023/06/14 00:47:36;;;;;;;1.93;1.37;;;;;;;;;;6262246;28;20071;-71
2023/06/14 00:50:38;;;;;;;3.17;1.65;;;;;;;;;;6258142;28;20102;-71
2023/06/14 00:53:39;;;;;;;2.10;1.70;;;;;;;;;;6259249;28;20318;-71
2023/06/14 00:56:40;;;;;;;3.20;1.60;;;;;;;;;;6264900;28;20032;-70
2023/06/14 00:59:42;;;;;;;1.60;1.50;;;;;;;;;;6258659;28;20616;-73
2023/06/14 01:02:42;;;;;;;3.30;1.58;;;;;;;;;;6259173;28;20032;-72
2023/06/14 01:05:44;;;;;;;2.03;1.40;;;;;;;;;;6260518;28;20119;-72
2023/06/14 01:08:51;;;;;;;1.58;1.48;;;;;;;;;;6261186;28;20079;-69
2023/06/14 01:12:21;;;;;;;1.60;1.30;;;;;;;;;;6256083;28;20406;-70
2023/06/14 01:15:22;;;;;;;2.10;1.65;;;;;;;;;;6251852;28;20053;-70
2023/06/14 01:18:25;;;;;;;3.03;1.77;;;;;;;;;;6267884;28;20049;-69
2023/06/14 01:21:28;;;;;;;2.25;1.83;;;;;;;;;;6253803;28;20056;-71
2023/06/14 01:24:31;;;;;;;1.92;1.58;;;;;;;;;;6255799;28;20017;-70
2023/06/14 01:27:32;;;;;;;2.22;1.40;;;;;;;;;;6251987;28;21591;-70
2023/06/14 01:30:34;;;;;;;2.25;1.80;;;;;;;;;;6252761;28;20481;-69
2023/06/14 01:33:35;;;;;;;2.05;1.52;;;;;;;;;;6257521;28;20367;-71
2023/06/14 01:36:36;;;;;;;1.33;1.23;;;;;;;;;;6262183;28;20021;-70
2023/06/14 01:39:36;;;;;;;2.15;1.50;;;;;;;;;;6254447;28;20679;-70
2023/06/14 01:42:38;;;;;;;2.03;1.58;;;;;;;;;;6263276;28;20029;-70
2023/06/14 01:45:39;;;;;;;2.45;1.35;;;;;;;;;;6252751;28;20123;-70
2023/06/14 01:48:40;;;;;;;1.70;1.35;;;;;;;;;;6265836;28;20359;-71
2023/06/14 01:51:40;;;;;;;2.20;1.40;;;;;;;;;;6256285;28;20029;-70
2023/06/14 01:54:41;;;;;;;2.90;1.40;;;;;;;;;;6267027;28;20130;-70
2023/06/14 01:57:41;;;;;;;2.08;1.60;;;;;;;;;;6268646;28;20025;-70
2023/06/14 02:00:43;;;;;;;1.47;1.30;;;;;;;;;;6259050;28;20045;-72
2023/06/14 02:03:44;;;;;;;1.70;1.40;;;;;;;;;;5917202;28;9999897;-71
2023/06/14 02:06:44;;;;;;;2.47;1.58;;;;;;;;;;6257972;28;20033;-71
2023/06/14 02:09:45;;;;;;;2.57;1.80;;;;;;;;;;6257603;28;20282;-72
2023/06/14 02:12:45;;;;;;;2.70;1.67;;;;;;;;;;6260584;28;20024;-69
2023/06/14 02:15:46;;;;;;;1.87;1.60;;;;;;;;;;6261651;28;20044;-71
2023/06/14 02:18:47;;;;;;;2.42;1.65;;;;;;;;;;6259268;28;20051;-70
2023/06/14 02:21:47;;;;;;;2.30;1.57;;;;;;;;;;6261666;28;20473;-69
2023/06/14 02:24:47;;;;;;;2.10;1.63;;;;;;;;;;6273347;28;20025;-70
2023/06/14 02:27:47;;;;;;;1.90;1.50;;;;;;;;;;6251475;28;20033;-69
2023/06/14 02:30:48;;;;;;;3.70;1.67;;;;;;;;;;6263495;28;20470;-69
2023/06/14 02:33:48;;;;;;;2.13;1.73;;;;;;;;;;6252891;28;20074;-71
2023/06/14 02:36:49;;;;;;;1.87;1.60;;;;;;;;;;6261018;28;20090;-71
2023/06/14 02:39:49;;;;;;;1.88;1.63;;;;;;;;;;6250003;28;20040;-71
2023/06/14 02:42:50;;;;;;;1.47;1.33;;;;;;;;;;6258007;28;20056;-71
2023/06/14 02:45:50;;;;;;;1.80;1.50;;;;;;;;;;6259329;28;20037;-70
2023/06/14 02:48:50;;;;;;;1.67;1.57;;;;;;;;;;6252235;28;20075;-70
2023/06/14 02:51:51;;;;;;;1.90;1.70;;;;;;;;;;6249908;28;20025;-70
2023/06/14 02:54:51;;;;;;;2.60;1.57;;;;;;;;;;6260076;28;20036;-72
2023/06/14 02:57:53;;;;;;;2.43;1.57;;;;;;;;;;6257244;28;20021;-70
2023/06/14 03:00:53;;;;;;;1.80;1.58;;;;;;;;;;6253481;28;20115;-70
2023/06/14 03:03:53;;;;;;;1.73;1.47;;;;;;;;;;6257486;28;20351;-70
2023/06/14 03:06:54;;;;;;;2.43;1.90;;;;;;;;;;6255610;28;20021;-70
2023/06/14 03:09:54;;;;;;;2.10;1.70;;;;;;;;;;6257010;28;20213;-70
2023/06/14 03:12:54;;;;;;;1.97;1.43;;;;;;;;;;6248127;28;20086;-70
2023/06/14 03:15:56;;;;;;;2.47;1.63;;;;;;;;;;6259269;28;20411;-70
2023/06/14 03:18:56;;;;;;;1.77;1.55;;;;;;;;;;6248821;28;20020;-70
2023/06/14 03:21:59;;;;;;;2.03;1.63;;;;;;;;;;6253293;28;20020;-70
2023/06/14 03:25:00;;;;;;;1.63;1.45;;;;;;;;;;6254355;28;20107;-70
2023/06/14 03:28:00;;;;;;;2.15;1.63;;;;;;;;;;6245891;28;20032;-70
2023/06/14 03:31:01;;;;;;;2.57;1.70;;;;;;;;;;6258476;28;20029;-70
2023/06/14 03:34:02;;;;;;;2.10;1.55;;;;;;;;;;6250795;28;20021;-69
2023/06/14 03:37:02;;;;;;;1.70;1.60;;;;;;;;;;6248520;28;20368;-67
2023/06/14 03:40:04;;;;;;;2.60;1.50;;;;;;;;;;6259911;28;20090;-69
2023/06/14 03:43:06;;;;;;;2.13;1.65;;;;;;;;;;6253618;28;20029;-69
2023/06/14 03:46:06;;;;;;;2.10;1.60;;;;;;;;;;6254959;28;20059;-69
2023/06/14 03:49:06;;;;;;;1.93;1.73;;;;;;;;;;6256753;28;20024;-70
2023/06/14 03:52:07;;;;;;;2.58;1.83;;;;;;;;;;6260599;28;20017;-70
2023/06/14 03:55:07;;;;;;;1.87;1.30;;;;;;;;;;6260381;28;20021;-71
2023/06/14 03:58:08;;;;;;;2.10;1.90;;;;;;;;;;6256710;28;20043;-72
2023/06/14 04:01:08;;;;;;;2.30;1.53;;;;;;;;;;6253453;28;20029;-70
2023/06/14 04:04:08;;;;;;;1.93;1.37;;;;;;;;;;6255740;28;20021;-72
2023/06/14 04:07:08;;;;;;;2.83;1.90;;;;;;;;;;6255076;28;20025;-70
2023/06/14 04:10:09;;;;;;;3.37;1.80;;;;;;;;;;6259739;28;20025;-70
2023/06/14 04:13:12;;;;;;;2.30;1.73;;;;;;;;;;6259668;28;20017;-70
2023/06/14 04:16:12;;;;;;;3.72;2.03;;;;;;;;;;6254636;28;20054;-70
2023/06/14 04:19:13;;;;;;;2.67;1.92;;;;;;;;;;6248061;28;20083;-72
2023/06/14 04:22:13;;;;;;;2.43;1.90;;;;;;;;;;6252344;28;20116;-69
2023/06/14 04:25:14;;;;;;;3.00;1.93;;;;;;;;;;6256947;28;20279;-69
2023/06/14 04:28:18;;;;;;;;;;;;;;;;;;6260876;28;20017;-71
2023/06/14 04:31:18;;;;;;;2.05;1.55;;;;;;;;;;6256239;28;20003;-71
2023/06/14 04:34:19;;;;;;;2.50;2.05;;;;;;;;;;6249148;28;20029;-70
2023/06/14 04:37:20;;;;;;;3.17;1.53;;;;;;;;;;6248919;28;20032;-70
2023/06/14 04:40:21;;;;;;;2.08;1.55;;;;;;;;;;6255142;28;20044;-70
2023/06/14 04:43:24;;;;;;;3.73;1.97;;;;;;;;;;6256039;28;20025;-70
2023/06/14 04:46:25;;;;;;;5.70;1.92;;;;;;;;;;6259277;28;20029;-72
2023/06/14 04:49:27;;;;;;;2.80;2.20;;;;;;;;;;6249125;28;20096;-72
2023/06/14 04:52:29;;;;;;;4.13;1.67;;;;;;;;;;6251058;28;20106;-71
2023/06/14 04:55:29;;;;;;;4.80;2.20;;;;;;;;;;6249898;28;20107;-70
2023/06/14 04:58:30;;;;;;;3.93;2.00;;;;;;;;;;6254266;28;20033;-71
2023/06/14 05:01:31;;;;;;;4.80;1.85;;;;;;;;;;6253610;28;20022;-71
2023/06/14 05:04:31;;;;;;;;;;;;;;;;;;6251965;28;20460;-70
2023/06/14 05:07:33;;;;;;;3.47;1.80;;;;;;;;;;6250046;28;19943;-70
2023/06/14 05:10:34;;;;;;;4.20;2.13;;;;;;;;;;6247846;28;20053;-70
2023/06/14 05:13:35;;;;;;;3.83;2.03;;;;;;;;;;6253484;28;20108;-70
2023/06/14 05:16:35;;;;;;;3.53;2.08;;;;;;;;;;6255306;28;20028;-71
2023/06/14 05:19:36;;;;;;;3.30;2.30;;;;;;;;;;6258944;28;20052;-72
2023/06/14 05:22:36;;;;;;;2.92;2.20;;;;;;;;;;6256152;28;20051;-69
2023/06/14 05:25:37;;;;;;;3.37;1.97;;;;;;;;;;6254914;28;20395;-71
2023/06/14 05:28:37;;;;;;;3.47;2.15;;;;;;;;;;6253395;28;20436;-70
2023/06/14 05:31:37;;;;;;;3.77;2.00;;;;;;;;;;6256783;28;20071;-71
2023/06/14 05:34:37;;;;;;;3.50;2.20;;;;;;;;;;6263996;28;20106;-69
2023/06/14 05:37:38;;;;;;;4.27;1.97;;;;;;;;;;6257966;28;20039;-71
2023/06/14 05:40:38;;;;;;;3.53;2.00;;;;;;;;;;6256628;28;20386;-72
2023/06/14 05:43:38;;;;;;;2.13;1.83;;;;;;;;;;6258212;28;20040;-72
2023/06/14 05:46:39;;;;;;;2.13;1.73;;;;;;;;;;6257055;28;20029;-72
2023/06/14 05:49:40;;;;;;;1.80;1.60;;;;;;;;;;5904411;28;9999887;-70
2023/06/14 05:52:40;;;;;;;2.73;2.17;;;;;;;;;;6258173;28;20026;-70
2023/06/14 05:55:40;;;;;;;5.67;2.20;;;;;;;;;;6251521;28;20103;-71
2023/06/14 05:58:40;;;;;;;;;;;;;;;;;;6258636;28;20117;-70
2023/06/14 06:01:40;;;;;;;2.03;1.83;;;;;;;;;;6253833;28;19916;-73
2023/06/14 06:04:40;;;;;;;;;;;;;;;;;;6257258;28;20029;-70
2023/06/14 06:07:41;;;;;;;2.80;1.65;;;;;;;;;;6253517;28;19913;-70
2023/06/14 06:10:41;;;;;;;;;;;;;;;;;;6256908;28;20017;-71
2023/06/14 06:13:42;;;;;;;1.67;1.42;;;;;;;;;;6255582;28;19908;-70
2023/06/14 06:16:42;;;;;;;;;;;;;;;;;;6252223;28;20401;-71
2023/06/14 06:19:42;;;;;;;3.00;1.88;;;;;;;;;;6251055;28;20084;-71
2023/06/14 06:22:42;;;;;;;;;;;;;;;;;;6265788;28;20032;-72
2023/06/14 06:25:43;;;;;;;2.10;1.63;;;;;;;;;;6264268;28;19920;-73
2023/06/14 06:28:43;;;;;;;;;;;;;;;;;;6255954;28;20012;-72
2023/06/14 06:31:43;;;;;;;2.03;1.63;;;;;;;;;;6256063;28;19912;-71
2023/06/14 06:34:43;;;;;;;;;;;;;;;;;;6255515;28;20291;-72
2023/06/14 06:37:43;;;;;;;2.15;1.58;;;;;;;;;;6262613;28;19912;-70
2023/06/14 06:40:44;;;;;;;;;;;;;;;;;;6254731;28;20033;-70
2023/06/14 06:43:44;;;;;;;1.92;1.60;;;;;;;;;;6251323;28;19988;-73
2023/06/14 06:46:44;;;;;;;;;;;;;;;;;;6250764;28;20025;-70
2023/06/14 06:49:44;;;;;;;2.72;1.95;;;;;;;;;;6245651;28;19973;-71
2023/06/14 06:52:45;;;;;;;;;;;;;;;;;;6251136;28;20370;-71
2023/06/14 06:55:45;;;;;;;1.65;1.55;;;;;;;;;;6257137;28;19908;-72
2023/06/14 06:58:45;;;;;;;;;;;;;;;;;;6255907;28;20076;-72
2023/06/14 07:01:45;;;;;;;2.22;1.75;;;;;;;;;;6266093;28;19938;-71
2023/06/14 07:04:46;;;;;;;;;;;;;;;;;;6260166;28;20028;-71
2023/06/14 07:07:47;;;;;;;2.45;1.88;;;;;;;;;;6257556;28;19912;-72
2023/06/14 07:10:47;;;;;;;;;;;;;;;;;;6261305;28;20384;-72
2023/06/14 07:13:47;;;;;;;3.33;1.73;;;;;;;;;;6243664;28;19920;-71
2023/06/14 07:16:47;;;;;;;;;;;;;;;;;;6249237;28;20035;-72
2023/06/14 07:19:47;;;;;;;1.70;1.55;;;;;;;;;;6249386;28;20038;-72
2023/06/14 07:22:47;;;;;;;2.63;2.00;;;;;;;;;;6251561;28;20088;-72
2023/06/14 07:25:48;;;;;;;2.57;2.00;;;;;;;;;;6246247;28;20025;-71
2023/06/14 07:28:49;;;;;;;1.73;1.63;;;;;;;;;;6242045;28;20271;-71
2023/06/14 07:31:49;;;;;;;3.20;1.95;;;;;;;;;;6249591;28;20036;-73
2023/06/14 07:34:49;;;;;;;1.60;1.50;;;;;;;;;;6250890;28;20021;-72
2023/06/14 07:37:49;;;;;;;2.45;1.75;;;;;;;;;;6251134;28;20029;-72
2023/06/14 07:40:50;;;;;;;3.43;1.90;;;;;;;;;;6247330;28;20036;-71
2023/06/14 07:43:50;;;;;;;4.10;1.80;;;;;;;;;;6247594;28;20731;-73
2023/06/14 07:46:50;;;;;;;2.00;1.53;;;;;;;;;;6246312;28;21013;-72
2023/06/14 07:49:50;;;;;;;1.92;1.77;;;;;;;;;;6249407;28;20298;-73
2023/06/14 07:52:50;;;;;;;2.20;1.70;;;;;;;;;;6254275;28;20474;-73
2023/06/14 07:55:51;;;;;;;3.57;1.80;;;;;;;;;;6252554;28;20760;-73
2023/06/14 07:58:51;;;;;;;2.08;1.80;;;;;;;;;;6268308;28;20763;-74
2023/06/14 08:01:52;;;;;;;2.17;1.80;;;;;;;;;;6276285;28;20021;-73
2023/06/14 08:04:52;;;;;;;2.83;1.80;;;;;;;;;;6266837;28;20093;-73
2023/06/14 08:07:52;;;;;;;2.25;2.00;;;;;;;;;;6258640;28;20280;-73
2023/06/14 08:10:52;;;;;;;3.55;1.67;;;;;;;;;;6247756;28;20025;-73
2023/06/14 08:13:53;;;;;;;1.93;1.70;;;;;;;;;;6253565;28;20017;-72
2023/06/14 08:16:53;;;;;;;2.10;1.70;;;;;;;;;;6253197;28;20271;-72
2023/06/14 08:19:57;;;;;;;2.55;1.95;;;;;;;;;;6253024;28;20021;-73
2023/06/14 08:22:58;;;;;;;2.10;1.65;;;;;;;;;;6262060;28;20017;-74
2023/06/14 08:25:58;;;;;;;1.92;1.75;;;;;;;;;;6253664;28;20033;-72
2023/06/14 08:28:58;;;;;;;3.63;1.85;;;;;;;;;;6251092;28;20052;-72
2023/06/14 08:31:58;;;;;;;2.47;1.77;;;;;;;;;;6249469;28;20025;-73
2023/06/14 08:34:59;;;;;;;2.77;1.90;;;;;;;;;;6250559;28;20267;-73
2023/06/14 08:37:59;;;;;;;2.00;1.80;;;;;;;;;;6250994;28;20359;-72
2023/06/14 08:41:00;;;;;;;2.28;2.08;;;;;;;;;;6246677;28;20028;-72
2023/06/14 08:44:01;;;;;;;3.35;2.10;;;;;;;;;;6265187;28;20020;-72
2023/06/14 08:47:03;;;;;;;2.45;1.83;;;;;;;;;;6249035;28;20153;-72
2023/06/14 08:50:04;;;;;;;2.15;1.75;;;;;;;;;;6249490;28;20130;-73
2023/06/14 08:53:05;;;;;;;2.30;1.60;;;;;;;;;;6252033;28;20021;-73
2023/06/14 08:56:07;;;;;;;3.80;1.88;;;;;;;;;;6249978;28;20017;-72
2023/06/14 08:59:08;;;;;;;2.70;1.70;;;;;;;;;;6256249;28;20127;-71
2023/06/14 09:02:12;;;;;;;2.17;1.92;;;;;;;;;;6251021;28;20382;-71
2023/06/14 09:05:13;;;;;;;2.80;2.13;;;;;;;;;;6256228;28;20451;-71
2023/06/14 09:08:13;;;;;;;3.03;2.10;;;;;;;;;;6254589;28;20051;-72
2023/06/14 09:11:14;;;;;;;2.50;2.10;;;;;;;;;;6250830;28;20037;-71
2023/06/14 09:14:15;;;;;;;1.85;1.70;;;;;;;;;;6257055;28;20033;-72
2023/06/14 09:17:15;;;;;;;4.03;2.10;;;;;;;;;;6257390;28;20018;-74
2023/06/14 09:20:18;;;;;;;2.37;2.03;;;;;;;;;;6252624;28;20096;-72
2023/06/14 09:23:22;;;;;;;6.90;2.00;;;;;;;;;;6251648;28;20051;-73
2023/06/14 09:26:23;;;;;;;2.53;2.00;;;;;;;;;;6252793;28;20041;-73
2023/06/14 09:29:23;;;;;;;2.17;1.55;;;;;;;;;;6254273;28;20104;-74
2023/06/14 09:32:24;;;;;;;2.53;1.70;;;;;;;;;;6255199;28;20025;-72
2023/06/14 09:35:25;;;;;;;3.35;2.15;;;;;;;;;;6252819;28;20021;-72
2023/06/14 09:38:25;;;;;;;2.08;1.70;;;;;;;;;;6251099;28;20726;-73
2023/06/14 09:41:33;;;;;;;4.03;1.63;;;;;;;;;;6255112;28;20056;-74
2023/06/14 09:44:33;;;;;;;2.15;1.95;;;;;;;;;;6255610;28;20485;-73
2023/06/14 09:47:33;;;;;;;4.50;1.87;;;;;;;;;;6260908;28;20035;-72
2023/06/14 09:50:34;;;;;;;2.47;2.10;;;;;;;;;;6264282;28;20026;-74
2023/06/14 09:53:36;;;;;;;1.98;1.77;;;;;;;;;;6278678;28;20279;-74
2023/06/14 09:56:41;;;;;;;2.53;1.95;;;;;;;;;;6280249;28;20016;-74
2023/06/14 09:59:42;;;;;;;2.10;1.70;;;;;;;;;;6264703;28;20113;-74
2023/06/14 10:02:47;;;;;;;2.63;1.95;;;;;;;;;;6255255;28;20103;-73
2023/06/14 10:05:50;;;;;;;3.30;2.00;;;;;;;;;;6254104;28;20032;-73
2023/06/14 10:08:52;;;;;;;3.70;2.13;;;;;;;;;;6253373;28;20031;-73
2023/06/14 10:11:52;;;;;;;2.38;1.63;;;;;;;;;;6255304;28;20021;-72
2023/06/14 10:14:55;;;;;;;3.00;2.10;;;;;;;;;;6257247;28;20078;-72
2023/06/14 10:17:58;;;;;;;4.72;1.88;;;;;;;;;;6252427;28;20096;-72
2023/06/14 10:21:25;;;;;;;5.10;2.10;;;;;;;;;;6261543;28;20016;-71
2023/06/14 10:24:38;;;;;;;1.90;1.70;;;;;;;;;;6251870;28;20497;-72
2023/06/14 10:27:39;;;;;;;2.00;1.63;;;;;;;;;;6252323;28;20028;-72
2023/06/14 10:30:39;;;;;;;1.50;1.35;;;;;;;;;;6246642;28;21368;-69
2023/06/14 10:33:52;;;;;;;3.63;1.50;;;;;;;;;;6247070;28;20070;-71
2023/06/14 10:37:05;;;;;;;1.80;1.70;;;;;;;;;;6249449;28;20466;-72
2023/06/14 10:40:08;;;;;;;1.92;1.50;;;;;;;;;;6249733;28;20175;-72
2023/06/14 10:43:22;;;;;;;2.05;1.90;;;;;;;;;;6244679;28;20078;-72
2023/06/14 10:46:28;;;;;;;2.10;1.80;;;;;;;;;;6243635;28;20020;-69
2023/06/14 10:49:42;;;;;;;2.28;1.80;;;;;;;;;;6247726;28;20178;-72
2023/06/14 10:52:43;;;;;;;2.33;1.77;;;;;;;;;;6251248;28;20028;-70
2023/06/14 10:55:43;;;;;;;2.67;1.67;;;;;;;;;;6255600;28;20052;-72
2023/06/14 10:58:44;;;;;;;3.60;1.70;;;;;;;;;;6256070;28;20044;-71
2023/06/14 11:01:57;;;;;;;2.27;2.07;;;;;;;;;;6249280;28;20357;-70
2023/06/14 11:04:59;;;;;;;2.05;1.65;;;;;;;;;;6248490;28;20024;-72
2023/06/14 11:08:18;;;;;;;2.72;1.70;;;;;;;;;;6255026;28;20071;-70
2023/06/14 11:11:21;;;;;;;2.00;1.67;;;;;;;;;;6250807;28;20021;-70
2023/06/14 11:14:22;;;;;;;2.15;1.70;;;;;;;;;;6251608;28;20009;-72
2023/06/14 11:17:22;;;;;;;1.70;1.60;;;;;;;;;;6247090;28;20359;-73
2023/06/14 11:20:24;;;;;;;1.90;1.58;;;;;;;;;;6253390;28;20347;-73
2023/06/14 11:23:25;;;;;;;2.88;1.60;;;;;;;;;;6247558;28;20033;-72
2023/06/14 11:26:27;;;;;;;2.00;1.80;;;;;;;;;;6244827;28;20089;-72
2023/06/14 11:29:28;;;;;;;1.98;1.50;;;;;;;;;;6251082;28;20398;-71
2023/06/14 11:32:31;;;;;;;3.60;1.85;;;;;;;;;;6249441;28;20020;-71
2023/06/14 11:35:31;;;;;;;2.40;1.45;;;;;;;;;;6246799;28;20060;-70
2023/06/14 11:38:34;;;;;;;1.73;1.63;;;;;;;;;;6244998;28;20028;-70
2023/06/14 11:41:42;;;;;;;2.15;1.63;;;;;;;;;;6251600;28;20033;-70
2023/06/14 11:44:45;;;;;;;2.25;1.63;;;;;;;;;;6251423;28;20049;-70
2023/06/14 11:47:45;;;;;;;2.10;1.63;;;;;;;;;;6242217;28;20527;-70
2023/06/14 11:50:49;;;;;;;1.80;1.70;;;;;;;;;;6252422;28;20035;-71
2023/06/14 11:53:49;;;;;;;1.80;1.70;;;;;;;;;;6254743;28;20021;-73
2023/06/14 11:56:50;;;;;;;1.70;1.42;;;;;;;;;;6252454;28;20663;-71
2023/06/14 11:59:51;;;;;;;1.50;1.40;;;;;;;;;;6251155;28;20017;-71
2023/06/14 12:02:53;;;;;;;2.53;1.35;;;;;;;;;;6259308;28;20021;-71
2023/06/14 12:06:07;;;;;;;1.60;1.50;;;;;;;;;;6257409;28;20104;-71
2023/06/14 12:09:12;;;;;;;2.92;1.70;;;;;;;;;;6255838;28;20032;-71
2023/06/14 12:12:12;;;;;;;1.67;1.45;;;;;;;;;;6249681;28;20116;-71
2023/06/14 12:15:13;;;;;;;3.43;1.67;;;;;;;;;;6255496;28;20091;-71
2023/06/14 12:18:13;;;;;;;2.35;1.70;;;;;;;;;;6258205;28;20029;-72
2023/06/14 12:21:13;;;;;;;2.20;1.80;;;;;;;;;;6251352;28;20082;-72
2023/06/14 12:24:14;;;;;;;2.13;1.57;;;;;;;;;;6263768;28;20695;-71
2023/06/14 12:27:15;;;;;;;3.10;2.10;;;;;;;;;;6258468;28;20401;-70
2023/06/14 12:30:16;;;;;;;1.73;1.60;;;;;;;;;;6253669;28;20025;-69
2023/06/14 12:33:16;;;;;;;3.97;2.00;;;;;;;;;;6247143;28;20107;-69
2023/06/14 12:36:17;;;;;;;1.90;1.80;;;;;;;;;;6256395;28;20108;-71
2023/06/14 12:39:17;;;;;;;2.33;1.80;;;;;;;;;;6254573;28;20486;-70
2023/06/14 12:42:18;;;;;;;2.95;1.65;;;;;;;;;;6253531;28;20033;-72
2023/06/14 12:45:18;;;;;;;2.72;1.83;;;;;;;;;;6263478;28;20556;-68
2023/06/14 12:48:18;;;;;;;3.03;2.00;;;;;;;;;;6248968;28;20035;-70
2023/06/14 12:51:19;;;;;;;2.00;1.80;;;;;;;;;;6256495;28;20029;-69
2023/06/14 12:54:22;;;;;;;1.70;1.60;;;;;;;;;;6253451;28;20049;-69
2023/06/14 12:57:23;;;;;;;3.92;1.80;;;;;;;;;;6245733;28;20057;-68
2023/06/14 13:00:23;;;;;;;2.03;1.83;;;;;;;;;;6255700;28;20394;-68
2023/06/14 13:03:23;;;;;;;1.98;1.60;;;;;;;;;;6250088;28;20553;-70
2023/06/14 13:06:24;;;;;;;1.97;1.50;;;;;;;;;;6248461;28;20029;-70
2023/06/14 13:09:24;;;;;;;2.15;1.73;;;;;;;;;;6252301;28;20017;-70
2023/06/14 13:12:24;;;;;;;3.17;2.07;;;;;;;;;;6250523;28;20033;-71
2023/06/14 13:15:25;;;;;;;2.40;2.20;;;;;;;;;;6252127;28;20063;-70
2023/06/14 13:18:26;;;;;;;3.65;1.88;;;;;;;;;;6253991;28;20117;-70
2023/06/14 13:21:26;;;;;;;2.65;1.90;;;;;;;;;;6247163;28;20029;-68
2023/06/14 13:24:28;;;;;;;2.45;2.00;;;;;;;;;;6252301;28;20033;-67
2023/06/14 13:27:28;;;;;;;2.85;2.08;;;;;;;;;;6243050;28;20041;-70
2023/06/14 13:30:29;;;;;;;3.60;2.42;;;;;;;;;;6256202;28;20044;-68
2023/06/14 13:33:29;;;;;;;3.83;2.08;;;;;;;;;;6247671;28;20031;-70
2023/06/14 13:36:30;;;;;;;4.90;2.17;;;;;;;;;;6249711;28;20033;-70
2023/06/14 13:39:30;;;;;;;3.13;1.77;;;;;;;;;;6249565;28;20099;-69
2023/06/14 13:42:31;;;;;;;3.20;1.65;;;;;;;;;;6248233;28;20114;-70
2023/06/14 13:45:32;;;;;;;2.08;1.90;;;;;;;;;;6241732;28;20355;-70
2023/06/14 13:48:32;;;;;;;1.97;1.87;;;;;;;;;;6248000;28;20036;-71
2023/06/14 13:51:33;;;;;;;2.30;2.10;;;;;;;;;;6247093;28;20040;-69
2023/06/14 13:54:33;;;;;;;2.60;2.13;;;;;;;;;;6253651;28;20040;-71
2023/06/14 13:57:33;;;;;;;2.10;1.90;;;;;;;;;;6249471;28;20021;-67
2023/06/14 14:00:34;;;;;;;2.17;2.00;;;;;;;;;;6253543;28;20272;-69
2023/06/14 14:03:34;;;;;;;2.25;1.92;;;;;;;;;;6249019;28;20024;-70
2023/06/14 14:06:35;;;;;;;2.22;2.00;;;;;;;;;;6245779;28;20024;-67
2023/06/14 14:09:35;;;;;;;3.10;1.90;;;;;;;;;;6257971;28;20048;-68
2023/06/14 14:12:38;;;;;;;2.53;1.52;;;;;;;;;;6249561;28;20025;-67
2023/06/14 14:15:38;;;;;;;2.00;1.80;;;;;;;;;;6260221;28;20013;-68
2023/06/14 14:18:39;;;;;;;2.23;1.67;;;;;;;;;;6247314;28;20652;-67
2023/06/14 14:21:39;;;;;;;2.03;1.85;;;;;;;;;;6254240;28;20110;-69
2023/06/14 14:24:39;;;;;;;1.87;1.77;;;;;;;;;;6251589;28;20092;-69
2023/06/14 14:27:40;;;;;;;1.80;1.57;;;;;;;;;;6245452;28;20124;-69
2023/06/14 14:30:40;;;;;;;2.13;1.85;;;;;;;;;;6247491;28;20436;-68
2023/06/14 14:33:40;;;;;;;2.70;1.83;;;;;;;;;;6253491;28;20489;-67
2023/06/14 14:36:42;;;;;;;1.80;1.70;;;;;;;;;;6253088;28;20417;-68
2023/06/14 14:39:43;;;;;;;1.98;1.88;;;;;;;;;;6259062;28;20263;-68
2023/06/14 14:42:44;;;;;;;4.63;1.77;;;;;;;;;;6263049;28;20097;-67
2023/06/14 14:45:44;;;;;;;1.70;1.60;;;;;;;;;;6250887;28;20462;-68
2023/06/14 14:48:44;;;;;;;3.43;1.47;;;;;;;;;;6246618;28;20063;-67
2023/06/14 14:51:46;;;;;;;2.17;1.77;;;;;;;;;;6245478;28;20057;-67
2023/06/14 14:54:46;;;;;;;2.57;2.00;;;;;;;;;;6245111;28;20023;-67
2023/06/14 14:57:47;;;;;;;2.67;1.50;;;;;;;;;;6248805;28;20021;-67
2023/06/14 15:00:47;;;;;;;5.22;1.70;;;;;;;;;;6245742;28;20018;-67
2023/06/14 15:03:48;;;;;;;2.23;1.57;;;;;;;;;;6241117;28;20027;-67
2023/06/14 15:06:48;;;;;;;2.55;1.80;;;;;;;;;;6243230;28;20286;-70
2023/06/14 15:09:51;;;;;;;2.33;1.97;;;;;;;;;;6247150;28;20065;-69
2023/06/14 15:12:51;;;;;;;3.53;1.80;;;;;;;;;;6247117;28;20017;-69
2023/06/14 15:15:51;;;;;;;3.13;1.80;;;;;;;;;;6247115;28;20519;-70
2023/06/14 15:18:51;;;;;;;2.27;1.70;;;;;;;;;;6253059;28;20120;-69
2023/06/14 15:21:51;;;;;;;2.00;1.77;;;;;;;;;;6248353;28;20035;-67
2023/06/14 15:24:52;;;;;;;3.50;1.70;;;;;;;;;;6250735;28;20178;-66
2023/06/14 15:27:52;;;;;;;2.20;1.93;;;;;;;;;;6243630;28;20112;-69
2023/06/14 15:30:52;;;;;;;3.13;1.73;;;;;;;;;;6241446;28;20436;-68
2023/06/14 15:33:52;;;;;;;2.57;1.93;;;;;;;;;;6244640;28;20017;-69
2023/06/14 15:36:53;;;;;;;2.53;1.60;;;;;;;;;;6244394;28;20458;-69
2023/06/14 15:39:53;;;;;;;2.40;1.90;;;;;;;;;;6240769;28;20079;-68
2023/06/14 15:42:53;;;;;;;1.92;1.80;;;;;;;;;;6242545;28;20021;-68
2023/06/14 15:45:53;;;;;;;2.00;1.70;;;;;;;;;;6245403;28;20021;-68
2023/06/14 15:48:54;;;;;;;1.70;1.60;;;;;;;;;;6248520;28;20024;-68
2023/06/14 15:51:55;;;;;;;1.83;1.67;;;;;;;;;;6245240;28;20021;-67
2023/06/14 15:54:55;;;;;;;3.20;1.98;;;;;;;;;;6250053;28;20029;-68
2023/06/14 15:57:55;;;;;;;2.63;1.67;;;;;;;;;;6248285;28;20032;-67
2023/06/14 16:00:55;;;;;;;2.50;1.73;;;;;;;;;;6244477;28;20037;-67
2023/06/14 16:03:56;;;;;;;2.67;1.80;;;;;;;;;;6243906;28;20449;-66
2023/06/14 16:06:56;;;;;;;9.18;4.55;;;;;;;;;;6242271;28;20032;-68
2023/06/14 16:09:56;;;;;;;5.35;4.35;;;;;;;;;;6245726;28;20070;-67
2023/06/14 16:12:57;;;;;;;4.10;3.33;;;;;;;;;;6242030;28;20028;-66
2023/06/14 16:15:57;;;;;;;2.70;2.03;;;;;;;;;;6246207;28;20025;-70
2023/06/14 16:18:58;;;;;;;3.15;2.00;;;;;;;;;;6251636;28;20314;-69
2023/06/14 16:21:58;;;;;;;3.53;1.80;;;;;;;;;;6245340;28;20056;-71
2023/06/14 16:24:58;;;;;;;2.45;1.60;;;;;;;;;;6245786;28;20040;-70
2023/06/14 16:27:58;;;;;;;2.37;1.77;;;;;;;;;;6248272;28;20101;-69
2023/06/14 16:30:59;;;;;;;2.80;2.20;;;;;;;;;;6243018;28;20362;-68
2023/06/14 16:33:59;;;;;;;3.20;1.60;;;;;;;;;;6239616;28;20384;-68
2023/06/14 16:36:59;;;;;;;2.60;1.65;;;;;;;;;;6244209;28;20665;-68
2023/06/14 16:40:00;;;;;;;2.40;1.95;;;;;;;;;;6245916;28;20025;-69
2023/06/14 16:43:00;;;;;;;3.95;2.10;;;;;;;;;;6241020;28;20021;-69
2023/06/14 16:46:00;;;;;;;2.30;1.90;;;;;;;;;;6242367;28;20031;-69
2023/06/14 16:49:01;;;;;;;3.40;2.00;;;;;;;;;;6248584;28;20032;-68
2023/06/14 16:52:01;;;;;;;3.17;2.10;;;;;;;;;;6241452;28;20022;-68
2023/06/14 16:55:01;;;;;;;4.90;2.17;;;;;;;;;;6248483;28;20495;-69
2023/06/14 16:58:02;;;;;;;2.80;2.23;;;;;;;;;;6244975;28;20036;-69
2023/06/14 17:01:02;;;;;;;3.95;2.40;;;;;;;;;;6244510;28;20359;-69
2023/06/14 17:04:02;;;;;;;2.55;2.15;;;;;;;;;;6251858;28;20390;-69
2023/06/14 17:07:04;;;;;;;2.63;2.10;;;;;;;;;;6245543;28;20029;-69
2023/06/14 17:10:04;;;;;;;3.50;2.17;;;;;;;;;;6255712;28;20317;-69
2023/06/14 17:13:04;;;;;;;3.45;2.00;;;;;;;;;;6251627;28;20022;-69
2023/06/14 17:16:06;;;;;;;2.77;2.20;;;;;;;;;;6246000;28;20717;-68
2023/06/14 17:19:06;;;;;;;2.38;2.17;;;;;;;;;;6246640;28;20279;-69
2023/06/14 17:22:06;;;;;;;3.05;2.03;;;;;;;;;;6253405;28;20099;-69
2023/06/14 17:25:07;;;;;;;2.63;2.00;;;;;;;;;;6253624;28;20106;-70
2023/06/14 17:28:07;;;;;;;2.25;2.00;;;;;;;;;;6280288;28;20425;-70
2023/06/14 17:31:08;;;;;;;2.97;1.93;;;;;;;;;;6257994;28;20029;-71
2023/06/14 17:34:08;;;;;;;3.55;2.00;;;;;;;;;;6251258;28;20272;-69
2023/06/14 17:37:08;;;;;;;2.43;2.23;;;;;;;;;;6247938;28;20017;-66
2023/06/14 17:40:09;;;;;;;3.17;2.00;;;;;;;;;;6255299;28;20039;-67
2023/06/14 17:43:09;;;;;;;2.45;2.22;;;;;;;;;;6254278;28;20052;-66
2023/06/14 17:46:09;;;;;;;3.00;1.88;;;;;;;;;;6243199;28;20351;-70
2023/06/14 17:49:10;;;;;;;2.17;1.98;;;;;;;;;;6243679;28;20491;-67
2023/06/14 17:52:10;;;;;;;2.70;2.15;;;;;;;;;;6249193;28;20025;-67
2023/06/14 17:55:10;;;;;;;1.97;1.73;;;;;;;;;;6246784;28;20109;-64
2023/06/14 17:58:10;;;;;;;3.10;1.98;;;;;;;;;;6244197;28;20404;-66
2023/06/14 18:01:11;;;;;;;2.13;1.90;;;;;;;;;;6246855;28;20174;-67
2023/06/14 18:04:11;;;;;;;3.13;1.70;;;;;;;;;;6251877;28;20269;-66
2023/06/14 18:07:11;;;;;;;5.38;1.92;;;;;;;;;;6246950;28;20033;-66
2023/06/14 18:10:14;;;;;;;2.63;2.07;;;;;;;;;;6248983;28;20051;-67
2023/06/14 18:13:14;;;;;;;2.25;2.05;;;;;;;;;;6249562;28;20749;-65